Wimbledon, North Dakota
Current Conditions -  °F | °C
As of 4:43 AM on Monday 22 Dec 2014 (Local Time) from KJMS Reporting Station
Haze Haze  
Wind Chill: 27°   Ceiling: 300
Heat Index: 32°   Visibility: 2mi
Dew Point: 31°   Wind: 5mph
Humidity: 96%   Direction: 90°E
Pressure: 29.44"   Gusts: NA
Location:  47.17°N, 98.46°W
Report Text: KJMS 221043Z AUTO 09004KT 2SM BR BKN003 OVC010 00/M01 A2944 RMK AO2 T00001006
Loading
Personal Weather Stations






























Interactive Weather Map New forecast layout! Learn more

10-Day Weather Forecast

Advertisements
Track Severe Weather on mobile